Time;durP1;ratioP1;P1;durP2;ratioP2;P2;SDS_P1;SDS_P2;PMS_P1;PMS_P2;Temp;Humidity;BMP_temperature;BMP_pressure;BME280_temperature;BME280_humidity;BME280_pressure;Samples;Min_cycle;Max_cycle;Signal;HPM_P1;HPM_P2
2021/12/21 00:00:14;;;;;;;17.87;13.30;;;;;;;;;;5078771;28;20440;-79
2021/12/21 00:02:43;;;;;;;17.70;14.00;;;;;;;;;;5078428;28;20467;-80
2021/12/21 00:05:16;;;;;;;15.50;13.17;;;;;;;;;;5081606;28;20479;-80
2021/12/21 00:07:43;;;;;;;17.02;14.18;;;;;;;;;;5079719;28;20467;-80
2021/12/21 00:10:10;;;;;;;17.57;12.50;;;;;;;;;;5078874;28;20638;-80
2021/12/21 00:12:41;;;;;;;19.63;13.30;;;;;;;;;;5078676;28;20444;-80
2021/12/21 00:15:20;;;;;;;20.13;13.60;;;;;;;;;;5078566;28;20972;-81
2021/12/21 00:17:54;;;;;;;15.90;13.03;;;;;;;;;;5076402;28;20853;-79
2021/12/21 00:20:31;;;;;;;16.77;12.23;;;;;;;;;;5079438;28;20432;-79
2021/12/21 00:25:43;;;;;;;17.07;13.37;;;;;;;;;;5079020;28;20575;-81
2021/12/21 00:28:10;;;;;;;14.57;13.10;;;;;;;;;;5079333;28;20523;-79
2021/12/21 00:30:38;;;;;;;16.00;13.67;;;;;;;;;;5078403;28;20489;-81
2021/12/21 00:33:07;;;;;;;17.27;14.27;;;;;;;;;;5078637;28;20433;-79
2021/12/21 00:35:34;;;;;;;18.60;13.50;;;;;;;;;;5093274;28;20459;-80
2021/12/21 00:38:03;;;;;;;17.13;13.30;;;;;;;;;;5100158;28;20448;-77
2021/12/21 00:40:30;;;;;;;17.43;13.40;;;;;;;;;;5099869;28;20424;-78
2021/12/21 00:42:57;;;;;;;21.50;16.57;;;;;;;;;;5096997;28;20463;-79
2021/12/21 00:45:24;;;;;;;18.67;14.33;;;;;;;;;;5096172;28;20525;-79
2021/12/21 00:47:51;;;;;;;19.27;13.57;;;;;;;;;;5098827;28;20441;-79
2021/12/21 00:50:23;;;;;;;15.00;12.10;;;;;;;;;;5099126;28;20476;-78
2021/12/21 00:52:54;;;;;;;14.70;11.67;;;;;;;;;;5091329;28;20655;-78
2021/12/21 00:55:21;;;;;;;19.45;12.80;;;;;;;;;;5097109;28;20449;-79
2021/12/21 00:57:48;;;;;;;18.20;13.87;;;;;;;;;;5098511;28;20192;-78
2021/12/21 01:00:17;;;;;;;16.35;12.25;;;;;;;;;;5098471;28;20432;-78
2021/12/21 01:02:44;;;;;;;16.00;12.23;;;;;;;;;;5077799;28;20183;-79
2021/12/21 01:05:19;;;;;;;16.37;12.73;;;;;;;;;;5074539;28;20539;-79
2021/12/21 01:07:50;;;;;;;15.13;12.30;;;;;;;;;;5074805;28;20471;-80
2021/12/21 01:13:15;;;;;;;18.30;12.60;;;;;;;;;;5075368;28;20463;-79
2021/12/21 01:16:00;;;;;;;17.20;11.57;;;;;;;;;;5083637;28;20484;-79
2021/12/21 01:18:34;;;;;;;20.57;11.97;;;;;;;;;;5079387;28;20763;-81
2021/12/21 01:21:10;;;;;;;17.47;12.50;;;;;;;;;;5076326;28;20421;-81
2021/12/21 01:24:01;;;;;;;21.47;12.10;;;;;;;;;;5075420;28;20429;-79
2021/12/21 01:26:36;;;;;;;14.32;11.40;;;;;;;;;;5075718;28;20456;-79
2021/12/21 01:29:12;;;;;;;12.83;11.53;;;;;;;;;;5076126;28;20198;-80
2021/12/21 01:31:48;;;;;;;17.13;10.87;;;;;;;;;;5076192;28;20480;-80
2021/12/21 01:34:28;;;;;;;17.23;11.83;;;;;;;;;;5076806;28;20432;-80
2021/12/21 01:37:00;;;;;;;13.90;11.03;;;;;;;;;;5076629;28;20445;-80
2021/12/21 01:42:32;;;;;;;13.53;11.80;;;;;;;;;;5028123;28;20452;-80
2021/12/21 01:50:29;;;;;;;15.50;10.63;;;;;;;;;;5080703;28;20464;-79
2021/12/21 01:52:56;;;;;;;13.10;10.45;;;;;;;;;;5078409;28;20806;-80
2021/12/21 01:55:24;;;;;;;16.60;10.60;;;;;;;;;;5079246;28;20569;-79
2021/12/21 01:57:51;;;;;;;13.83;10.47;;;;;;;;;;5079252;28;20441;-79
2021/12/21 02:00:19;;;;;;;23.70;12.33;;;;;;;;;;5078987;28;20789;-79
2021/12/21 02:02:46;;;;;;;14.07;10.73;;;;;;;;;;5059559;28;20469;-80
2021/12/21 02:05:13;;;;;;;19.40;10.60;;;;;;;;;;5057756;28;20289;-79
2021/12/21 02:07:40;;;;;;;17.17;10.03;;;;;;;;;;5059042;28;20422;-79
2021/12/21 02:10:07;;;;;;;16.00;9.88;;;;;;;;;;5064004;28;20457;-80
2021/12/21 02:12:36;;;;;;;12.67;10.10;;;;;;;;;;5062625;28;20195;-79
2021/12/21 02:15:03;;;;;;;14.43;10.45;;;;;;;;;;5063461;28;20466;-79
2021/12/21 02:18:06;;;;;;;13.57;9.82;;;;;;;;;;5064470;28;20203;-79
2021/12/21 02:20:43;;;;;;;12.20;10.10;;;;;;;;;;5065043;28;20217;-79
2021/12/21 02:23:14;;;;;;;10.40;8.97;;;;;;;;;;5064038;28;20426;-78
2021/12/21 02:28:36;;;;;;;17.93;10.00;;;;;;;;;;5054662;28;20487;-79
2021/12/21 02:31:03;;;;;;;10.67;9.53;;;;;;;;;;5055997;28;20472;-78
2021/12/21 02:33:30;;;;;;;16.53;10.10;;;;;;;;;;5056510;28;20437;-80
2021/12/21 02:35:59;;;;;;;14.33;10.53;;;;;;;;;;5056902;28;20999;-82
2021/12/21 02:38:26;;;;;;;11.43;9.97;;;;;;;;;;5062872;28;20471;-80
2021/12/21 02:40:55;;;;;;;14.00;10.17;;;;;;;;;;5060354;28;20876;-80
2021/12/21 02:43:22;;;;;;;13.57;10.60;;;;;;;;;;5069519;28;20472;-78
2021/12/21 02:45:49;;;;;;;12.37;10.10;;;;;;;;;;5072206;28;20484;-78
2021/12/21 02:48:16;;;;;;;15.20;10.63;;;;;;;;;;5071971;28;20448;-79
2021/12/21 02:50:43;;;;;;;16.60;10.73;;;;;;;;;;5072614;28;20473;-78
2021/12/21 02:53:12;;;;;;;16.60;10.63;;;;;;;;;;5067803;28;20434;-79
2021/12/21 02:55:39;;;;;;;13.90;10.83;;;;;;;;;;5057011;28;20473;-81
2021/12/21 02:58:06;;;;;;;14.77;10.53;;;;;;;;;;5057508;28;20450;-81
2021/12/21 03:00:34;;;;;;;12.37;9.30;;;;;;;;;;5057673;28;20508;-79
2021/12/21 03:03:07;;;;;;;13.53;10.00;;;;;;;;;;5070348;28;20551;-79
2021/12/21 03:05:36;;;;;;;13.97;9.70;;;;;;;;;;5076345;28;20460;-80
2021/12/21 03:08:11;;;;;;;16.80;10.10;;;;;;;;;;5076590;28;20452;-80
2021/12/21 03:10:47;;;;;;;16.25;10.00;;;;;;;;;;5076355;28;20480;-79
2021/12/21 03:15:59;;;;;;;15.83;10.20;;;;;;;;;;5091826;28;20252;-76
2021/12/21 03:18:26;;;;;;;16.30;10.30;;;;;;;;;;5100377;28;20439;-78
2021/12/21 03:20:53;;;;;;;10.43;8.50;;;;;;;;;;5101020;28;20459;-79
2021/12/21 03:23:20;;;;;;;12.17;10.10;;;;;;;;;;5100485;28;20433;-78
2021/12/21 03:25:48;;;;;;;12.60;10.20;;;;;;;;;;5100826;28;20449;-80
2021/12/21 03:28:15;;;;;;;13.67;10.10;;;;;;;;;;5100474;28;20444;-79
2021/12/21 03:30:42;;;;;;;15.95;10.23;;;;;;;;;;5100724;28;20498;-78
2021/12/21 03:33:09;;;;;;;13.17;10.33;;;;;;;;;;5100450;28;20179;-78
2021/12/21 03:35:36;;;;;;;15.03;10.40;;;;;;;;;;5100022;28;20445;-78
2021/12/21 03:38:04;;;;;;;16.80;10.90;;;;;;;;;;5099705;28;20436;-77
2021/12/21 03:40:33;;;;;;;12.20;9.80;;;;;;;;;;5099528;28;20435;-77
2021/12/21 03:43:02;;;;;;;13.70;11.00;;;;;;;;;;5091286;28;20466;-80
2021/12/21 03:45:32;;;;;;;15.45;10.43;;;;;;;;;;5076030;28;20467;-80
2021/12/21 03:47:59;;;;;;;14.03;9.80;;;;;;;;;;5076248;28;20191;-79
2021/12/21 03:50:27;;;;;;;12.33;10.93;;;;;;;;;;5075853;28;20433;-79
2021/12/21 03:52:55;;;;;;;13.90;10.53;;;;;;;;;;5078063;28;20463;-79
2021/12/21 03:55:22;;;;;;;11.93;10.50;;;;;;;;;;5079943;28;20483;-80
2021/12/21 03:57:49;;;;;;;12.77;10.10;;;;;;;;;;5079230;28;20451;-81
2021/12/21 04:00:18;;;;;;;12.80;10.60;;;;;;;;;;5078231;28;20202;-79
2021/12/21 04:02:45;;;;;;;12.47;9.53;;;;;;;;;;5077321;28;20523;-80
2021/12/21 04:05:13;;;;;;;33.27;25.40;;;;;;;;;;5076512;28;20457;-80
2021/12/21 04:07:41;;;;;;;89.50;57.43;;;;;;;;;;5078340;28;20452;-80
2021/12/21 04:10:08;;;;;;;72.87;44.37;;;;;;;;;;5078939;28;20444;-79
2021/12/21 04:12:36;;;;;;;28.93;18.90;;;;;;;;;;5079686;28;20478;-80
2021/12/21 04:15:06;;;;;;;13.20;11.37;;;;;;;;;;5075780;28;20473;-81
2021/12/21 04:17:35;;;;;;;11.20;10.10;;;;;;;;;;5076302;28;20449;-79
2021/12/21 04:20:02;;;;;;;14.53;10.20;;;;;;;;;;5078853;28;20448;-80
2021/12/21 04:22:29;;;;;;;13.27;9.80;;;;;;;;;;5077596;28;20437;-79
2021/12/21 04:24:56;;;;;;;11.50;9.90;;;;;;;;;;5078644;28;20465;-79
2021/12/21 04:27:23;;;;;;;13.10;10.40;;;;;;;;;;5078141;28;20460;-81
2021/12/21 04:29:50;;;;;;;16.63;10.30;;;;;;;;;;5077663;28;20436;-79
2021/12/21 04:32:17;;;;;;;17.90;10.30;;;;;;;;;;5078258;28;20476;-81
2021/12/21 04:34:46;;;;;;;12.88;10.23;;;;;;;;;;5077303;28;20469;-81
2021/12/21 04:37:15;;;;;;;11.87;10.10;;;;;;;;;;5078026;28;20248;-79
2021/12/21 04:39:47;;;;;;;13.93;10.90;;;;;;;;;;5078750;28;20732;-79
2021/12/21 04:42:14;;;;;;;13.80;10.17;;;;;;;;;;5078088;28;20493;-80
2021/12/21 04:44:41;;;;;;;13.40;9.27;;;;;;;;;;5078125;28;20450;-79
2021/12/21 04:47:08;;;;;;;14.30;9.68;;;;;;;;;;5078346;28;20940;-79
2021/12/21 04:49:35;;;;;;;13.07;9.70;;;;;;;;;;5078359;28;20198;-81
2021/12/21 04:52:04;;;;;;;11.73;9.17;;;;;;;;;;5078442;28;20480;-79
2021/12/21 04:54:31;;;;;;;12.47;9.40;;;;;;;;;;5077385;28;20427;-80
2021/12/21 04:56:58;;;;;;;12.73;9.70;;;;;;;;;;5077927;28;20928;-79
2021/12/21 04:59:25;;;;;;;12.10;9.80;;;;;;;;;;5077294;28;20444;-79
2021/12/21 05:01:54;;;;;;;13.40;10.27;;;;;;;;;;5076942;28;20432;-80
2021/12/21 05:04:21;;;;;;;16.57;11.07;;;;;;;;;;5077264;28;20452;-79
2021/12/21 05:06:49;;;;;;;15.43;10.48;;;;;;;;;;5078790;28;20479;-79
2021/12/21 05:09:25;;;;;;;14.73;11.00;;;;;;;;;;5077270;28;20191;-79
2021/12/21 05:11:54;;;;;;;11.70;10.50;;;;;;;;;;5078877;28;20494;-79
2021/12/21 05:14:21;;;;;;;14.90;11.27;;;;;;;;;;5078533;28;20449;-80
2021/12/21 05:16:48;;;;;;;13.40;10.53;;;;;;;;;;5078223;28;20444;-79
2021/12/21 05:19:15;;;;;;;16.93;10.40;;;;;;;;;;5077661;28;20444;-77
2021/12/21 05:21:42;;;;;;;13.23;11.83;;;;;;;;;;5078139;28;20440;-79
2021/12/21 05:24:09;;;;;;;10.40;9.40;;;;;;;;;;5078320;28;20433;-79
2021/12/21 05:26:38;;;;;;;14.57;10.90;;;;;;;;;;5077894;28;20487;-79
2021/12/21 05:29:05;;;;;;;12.60;11.00;;;;;;;;;;5081436;28;20445;-81
2021/12/21 05:31:32;;;;;;;15.90;11.37;;;;;;;;;;5083390;28;20468;-80
2021/12/21 05:33:59;;;;;;;16.20;10.90;;;;;;;;;;5084899;28;20437;-79
2021/12/21 05:36:26;;;;;;;11.97;10.77;;;;;;;;;;5084270;28;20461;-79
2021/12/21 05:38:59;;;;;;;16.43;11.00;;;;;;;;;;5082973;28;21001;-79
2021/12/21 05:41:29;;;;;;;14.47;10.93;;;;;;;;;;5082714;28;20445;-79
2021/12/21 05:43:57;;;;;;;13.20;11.43;;;;;;;;;;5082878;28;20449;-80
2021/12/21 05:46:24;;;;;;;15.77;10.53;;;;;;;;;;5080599;28;20979;-79
2021/12/21 05:48:52;;;;;;;14.27;11.03;;;;;;;;;;5080925;28;20456;-79
2021/12/21 05:51:20;;;;;;;13.00;10.30;;;;;;;;;;5078609;28;20535;-80
2021/12/21 05:53:47;;;;;;;12.10;10.83;;;;;;;;;;5077247;28;20480;-79
2021/12/21 05:56:14;;;;;;;13.17;9.90;;;;;;;;;;5077112;28;20456;-79
2021/12/21 05:58:41;;;;;;;12.97;10.03;;;;;;;;;;5077736;28;20444;-79
2021/12/21 06:01:09;;;;;;;13.80;11.10;;;;;;;;;;5080027;28;20894;-79
2021/12/21 06:03:36;;;;;;;11.93;10.82;;;;;;;;;;5074151;28;20438;-78
2021/12/21 06:06:03;;;;;;;13.57;10.50;;;;;;;;;;5073104;28;20221;-79
2021/12/21 06:08:31;;;;;;;13.27;10.27;;;;;;;;;;5077840;28;20508;-80
2021/12/21 06:11:00;;;;;;;17.63;11.60;;;;;;;;;;5078397;28;20233;-79
2021/12/21 06:22:43;;;;;;;11.82;8.68;;;;;;;;;;5096568;28;20466;-79
2021/12/21 06:27:41;;;;;;;12.90;10.80;;;;;;;;;;5096987;28;20420;-78
2021/12/21 06:30:09;;;;;;;13.50;11.13;;;;;;;;;;5091968;28;20435;-77
2021/12/21 06:32:38;;;;;;;16.10;11.23;;;;;;;;;;5094027;28;20479;-80
2021/12/21 06:35:06;;;;;;;11.83;10.57;;;;;;;;;;5092043;28;20566;-82
2021/12/21 06:37:33;;;;;;;15.77;11.87;;;;;;;;;;5091007;28;20495;-80
2021/12/21 06:40:00;;;;;;;13.67;10.87;;;;;;;;;;5063285;28;20870;-79
2021/12/21 06:42:28;;;;;;;14.90;11.20;;;;;;;;;;5076165;28;20443;-80
2021/12/21 06:44:58;;;;;;;24.07;14.83;;;;;;;;;;5074510;28;20283;-79
2021/12/21 06:52:57;;;;;;;17.00;12.40;;;;;;;;;;5076292;28;20451;-79
2021/12/21 06:55:24;;;;;;;16.50;11.53;;;;;;;;;;5078907;28;20463;-79
2021/12/21 06:57:51;;;;;;;17.10;11.53;;;;;;;;;;5075116;28;20452;-79
2021/12/21 07:00:19;;;;;;;25.00;18.03;;;;;;;;;;5073891;28;20452;-80
2021/12/21 07:02:46;;;;;;;16.77;12.27;;;;;;;;;;5078448;28;20569;-80
2021/12/21 07:05:16;;;;;;;16.83;11.90;;;;;;;;;;5076152;28;20471;-80
2021/12/21 07:07:43;;;;;;;12.35;11.05;;;;;;;;;;5076813;28;20441;-79
2021/12/21 07:10:20;;;;;;;10.53;9.53;;;;;;;;;;5072375;28;20453;-79
2021/12/21 07:27:24;;;;;;;11.40;10.30;;;;;;;;;;5013591;28;20894;-80
2021/12/21 07:36:43;;;;;;;13.10;10.70;;;;;;;;;;5012823;28;20465;-80
2021/12/21 07:39:11;;;;;;;18.60;16.80;;;;;;;;;;5012798;28;20423;-79
2021/12/21 07:41:38;;;;;;;17.30;15.50;;;;;;;;;;5012074;28;20440;-79
2021/12/21 07:44:05;;;;;;;18.00;13.33;;;;;;;;;;5069791;28;20448;-81
2021/12/21 07:46:32;;;;;;;17.87;12.67;;;;;;;;;;5075371;28;20468;-81
2021/12/21 07:49:00;;;;;;;15.93;11.93;;;;;;;;;;5076207;28;20436;-79
2021/12/21 07:51:27;;;;;;;14.80;11.70;;;;;;;;;;5075548;28;20434;-81
2021/12/21 07:53:56;;;;;;;14.07;12.57;;;;;;;;;;5075591;28;20498;-80
2021/12/21 07:56:23;;;;;;;14.45;12.50;;;;;;;;;;5075949;28;20467;-80
2021/12/21 07:58:50;;;;;;;22.43;12.40;;;;;;;;;;5076360;28;20588;-81
2021/12/21 08:01:17;;;;;;;15.77;12.20;;;;;;;;;;5076098;28;20453;-79
2021/12/21 08:03:45;;;;;;;17.87;12.70;;;;;;;;;;5075930;28;20472;-81
2021/12/21 08:06:13;;;;;;;14.90;11.70;;;;;;;;;;5078993;28;20908;-82
2021/12/21 08:08:43;;;;;;;20.37;13.00;;;;;;;;;;5078996;28;20955;-80
2021/12/21 08:11:16;;;;;;;21.47;15.80;;;;;;;;;;5078562;28;20452;-80
2021/12/21 08:13:43;;;;;;;20.30;14.13;;;;;;;;;;5079231;28;20483;-81
2021/12/21 08:16:11;;;;;;;17.73;14.33;;;;;;;;;;5079881;28;20467;-80
2021/12/21 08:18:38;;;;;;;16.63;13.07;;;;;;;;;;5078845;28;20444;-81
2021/12/21 08:21:05;;;;;;;19.52;12.57;;;;;;;;;;5078610;28;20471;-81
2021/12/21 08:23:32;;;;;;;17.53;13.63;;;;;;;;;;5077936;28;20222;-81
2021/12/21 08:25:59;;;;;;;18.73;13.23;;;;;;;;;;5079249;28;20456;-81
2021/12/21 08:28:28;;;;;;;19.50;11.80;;;;;;;;;;5080087;28;20437;-81
2021/12/21 08:30:55;;;;;;;17.90;11.80;;;;;;;;;;5079481;28;20428;-80
2021/12/21 08:33:22;;;;;;;23.53;12.60;;;;;;;;;;5079511;28;20798;-80
2021/12/21 08:35:49;;;;;;;15.33;12.40;;;;;;;;;;5079454;28;20463;-79
2021/12/21 08:38:18;;;;;;;15.93;11.90;;;;;;;;;;5078952;28;20433;-80
2021/12/21 08:40:49;;;;;;;20.90;12.07;;;;;;;;;;5079406;28;20956;-81
2021/12/21 08:43:17;;;;;;;15.70;11.23;;;;;;;;;;5079398;28;20464;-82
2021/12/21 08:45:46;;;;;;;12.60;10.97;;;;;;;;;;5078884;28;20521;-80
2021/12/21 08:48:14;;;;;;;13.82;12.30;;;;;;;;;;5078784;28;20441;-81
2021/12/21 08:50:42;;;;;;;14.67;11.47;;;;;;;;;;5078815;28;20198;-81
2021/12/21 08:53:09;;;;;;;13.87;10.70;;;;;;;;;;5078482;28;20429;-80
2021/12/21 08:55:36;;;;;;;17.70;10.80;;;;;;;;;;5080546;28;20453;-80
2021/12/21 08:58:03;;;;;;;17.00;11.40;;;;;;;;;;5080819;28;20864;-80
2021/12/21 09:00:30;;;;;;;15.90;10.00;;;;;;;;;;5079516;28;20448;-82
2021/12/21 09:02:58;;;;;;;12.33;9.80;;;;;;;;;;5078195;28;20480;-82
2021/12/21 09:05:27;;;;;;;13.73;11.07;;;;;;;;;;5078564;28;20496;-81
2021/12/21 09:07:55;;;;;;;12.00;10.07;;;;;;;;;;5079065;28;20498;-82
2021/12/21 09:10:23;;;;;;;12.03;9.57;;;;;;;;;;5078291;28;20463;-80
2021/12/21 09:12:50;;;;;;;12.97;10.80;;;;;;;;;;5079079;28;20441;-82
2021/12/21 09:15:17;;;;;;;26.83;21.43;;;;;;;;;;5079704;28;20471;-82
2021/12/21 09:17:45;;;;;;;13.23;11.23;;;;;;;;;;5079041;28;20444;-80
2021/12/21 09:20:14;;;;;;;14.10;10.77;;;;;;;;;;5079869;28;20440;-80
2021/12/21 09:22:41;;;;;;;12.13;10.83;;;;;;;;;;5079061;28;20476;-81
2021/12/21 09:25:09;;;;;;;17.05;11.27;;;;;;;;;;5078979;28;21017;-82
2021/12/21 09:27:36;;;;;;;13.30;11.00;;;;;;;;;;5078392;28;20202;-82
2021/12/21 09:30:04;;;;;;;15.23;11.27;;;;;;;;;;5077624;28;20467;-82
2021/12/21 09:32:31;;;;;;;13.33;11.70;;;;;;;;;;5077942;28;20922;-82
2021/12/21 09:34:58;;;;;;;13.70;10.70;;;;;;;;;;5078165;28;20448;-81
2021/12/21 09:37:27;;;;;;;12.02;10.35;;;;;;;;;;5078641;28;20441;-81
2021/12/21 09:39:55;;;;;;;14.10;9.80;;;;;;;;;;5078485;28;20206;-82
2021/12/21 09:42:24;;;;;;;11.77;10.60;;;;;;;;;;5077879;28;20449;-81
2021/12/21 09:44:51;;;;;;;14.87;10.43;;;;;;;;;;5077776;28;21011;-82
2021/12/21 09:47:18;;;;;;;12.17;9.70;;;;;;;;;;5077025;28;20510;-82
2021/12/21 09:49:46;;;;;;;12.30;9.77;;;;;;;;;;5077795;28;20452;-82
2021/12/21 09:52:14;;;;;;;12.03;9.53;;;;;;;;;;5076699;28;20934;-81
2021/12/21 09:54:43;;;;;;;10.50;9.60;;;;;;;;;;5077395;28;20464;-81
2021/12/21 09:57:10;;;;;;;12.47;11.10;;;;;;;;;;5075137;28;20948;-82
2021/12/21 09:59:37;;;;;;;13.07;10.53;;;;;;;;;;5077864;28;20438;-81
2021/12/21 10:02:05;;;;;;;13.97;10.30;;;;;;;;;;5072611;28;20438;-80
2021/12/21 10:04:32;;;;;;;13.27;11.05;;;;;;;;;;5057022;28;20556;-81
2021/12/21 10:07:00;;;;;;;13.30;10.93;;;;;;;;;;5057896;28;20195;-82
2021/12/21 10:09:34;;;;;;;10.97;9.87;;;;;;;;;;5057088;28;20463;-80
2021/12/21 10:12:02;;;;;;;10.77;9.77;;;;;;;;;;5057463;28;20642;-82
2021/12/21 10:14:29;;;;;;;13.50;10.17;;;;;;;;;;5057595;28;20438;-83
2021/12/21 10:17:04;;;;;;;11.07;10.03;;;;;;;;;;5057182;28;20463;-80
2021/12/21 10:19:31;;;;;;;11.40;10.20;;;;;;;;;;5057452;28;20453;-81
2021/12/21 10:22:08;;;;;;;11.03;9.63;;;;;;;;;;5056856;28;20831;-81
2021/12/21 10:24:43;;;;;;;10.73;9.60;;;;;;;;;;5057141;28;20481;-81
2021/12/21 10:27:12;;;;;;;15.10;10.13;;;;;;;;;;5056262;28;20495;-82
2021/12/21 10:29:43;;;;;;;9.97;8.97;;;;;;;;;;5056649;28;20427;-81
2021/12/21 10:32:17;;;;;;;10.60;9.40;;;;;;;;;;5055894;28;20802;-80
2021/12/21 10:34:50;;;;;;;11.67;9.67;;;;;;;;;;5055366;28;20495;-82
2021/12/21 10:37:22;;;;;;;14.47;8.90;;;;;;;;;;5055447;28;20495;-81
2021/12/21 10:39:49;;;;;;;10.53;8.83;;;;;;;;;;5056641;28;20513;-81
2021/12/21 10:42:17;;;;;;;11.98;9.75;;;;;;;;;;5056624;28;20432;-81
2021/12/21 10:44:46;;;;;;;12.13;9.80;;;;;;;;;;5055407;28;20254;-82
2021/12/21 10:47:14;;;;;;;10.57;9.57;;;;;;;;;;5055565;28;20441;-83
2021/12/21 10:49:41;;;;;;;11.55;10.23;;;;;;;;;;5056583;28;20436;-82
2021/12/21 10:52:09;;;;;;;11.40;10.30;;;;;;;;;;5056417;28;20458;-83
2021/12/21 10:54:37;;;;;;;11.55;10.35;;;;;;;;;;5056305;28;20453;-81
2021/12/21 10:57:05;;;;;;;13.20;10.47;;;;;;;;;;5060954;28;20225;-82
2021/12/21 10:59:35;;;;;;;11.40;10.23;;;;;;;;;;5064784;28;20453;-82
2021/12/21 11:02:10;;;;;;;10.27;9.30;;;;;;;;;;5059519;28;20437;-82
2021/12/21 11:04:37;;;;;;;9.83;8.90;;;;;;;;;;5059560;28;20469;-83
2021/12/21 11:07:19;;;;;;;9.87;8.70;;;;;;;;;;5061507;28;20449;-82
2021/12/21 11:09:54;;;;;;;10.80;9.70;;;;;;;;;;5075217;28;20536;-82
2021/12/21 11:12:23;;;;;;;10.37;9.00;;;;;;;;;;5075763;28;20261;-80
2021/12/21 11:14:53;;;;;;;12.60;8.37;;;;;;;;;;5076432;28;20505;-80
2021/12/21 11:17:21;;;;;;;8.63;7.83;;;;;;;;;;5077461;28;20478;-84
2021/12/21 11:19:48;;;;;;;9.20;7.83;;;;;;;;;;5076559;28;20453;-81
2021/12/21 11:22:15;;;;;;;8.87;7.30;;;;;;;;;;5077858;28;20429;-82
2021/12/21 11:24:44;;;;;;;8.43;7.60;;;;;;;;;;5077138;28;20495;-81
2021/12/21 11:27:11;;;;;;;8.20;7.40;;;;;;;;;;5078300;28;20958;-82
2021/12/21 11:29:39;;;;;;;7.47;6.73;;;;;;;;;;5079780;28;20426;-82
2021/12/21 11:32:08;;;;;;;11.03;7.67;;;;;;;;;;5080027;28;20488;-79
2021/12/21 11:34:37;;;;;;;9.87;8.73;;;;;;;;;;5077272;28;20464;-80
2021/12/21 11:37:21;;;;;;;10.40;8.20;;;;;;;;;;5076901;28;20521;-82
2021/12/21 11:39:48;;;;;;;8.37;7.67;;;;;;;;;;5079567;28;20788;-80
2021/12/21 11:42:21;;;;;;;8.83;7.83;;;;;;;;;;5080846;28;20439;-82
2021/12/21 11:44:52;;;;;;;9.20;8.20;;;;;;;;;;5080407;28;20508;-83
2021/12/21 11:47:26;;;;;;;12.73;7.77;;;;;;;;;;5080507;28;20459;-80
2021/12/21 11:49:58;;;;;;;11.50;7.97;;;;;;;;;;5080638;28;20425;-80
2021/12/21 11:52:27;;;;;;;8.50;7.60;;;;;;;;;;5081735;28;20645;-82
2021/12/21 11:54:56;;;;;;;8.43;7.70;;;;;;;;;;5080930;28;20468;-81
2021/12/21 11:57:34;;;;;;;9.33;8.30;;;;;;;;;;5081906;28;20436;-81
2021/12/21 12:00:06;;;;;;;8.80;7.95;;;;;;;;;;5079632;28;20807;-82
2021/12/21 12:02:35;;;;;;;9.23;8.33;;;;;;;;;;5070261;28;20255;-80
2021/12/21 12:05:02;;;;;;;9.50;7.63;;;;;;;;;;5059682;28;20825;-81
2021/12/21 12:07:31;;;;;;;11.43;8.67;;;;;;;;;;5060261;28;20452;-82
2021/12/21 12:10:06;;;;;;;11.07;7.20;;;;;;;;;;5058805;28;20456;-81
2021/12/21 12:12:33;;;;;;;12.20;8.00;;;;;;;;;;5060094;28;20825;-82
2021/12/21 12:15:01;;;;;;;13.80;8.40;;;;;;;;;;5060762;28;20534;-80
2021/12/21 12:17:30;;;;;;;12.40;7.80;;;;;;;;;;5059041;28;20432;-81
2021/12/21 12:20:05;;;;;;;8.73;7.83;;;;;;;;;;5059622;28;20437;-81
2021/12/21 12:22:35;;;;;;;8.00;7.30;;;;;;;;;;5060130;28;20440;-82
2021/12/21 12:25:02;;;;;;;7.70;6.53;;;;;;;;;;5059644;28;20543;-82
2021/12/21 12:27:30;;;;;;;9.10;7.13;;;;;;;;;;5059455;28;20436;-81
2021/12/21 12:29:58;;;;;;;7.80;7.00;;;;;;;;;;5059613;28;20491;-81
2021/12/21 12:32:32;;;;;;;8.90;8.20;;;;;;;;;;5059490;28;20483;-82
2021/12/21 12:35:04;;;;;;;8.60;7.77;;;;;;;;;;5058773;28;20468;-80
2021/12/21 12:37:31;;;;;;;9.67;7.63;;;;;;;;;;5059459;28;20479;-79
2021/12/21 12:40:02;;;;;;;12.83;8.57;;;;;;;;;;5059523;28;20434;-81
2021/12/21 12:42:32;;;;;;;12.25;7.85;;;;;;;;;;5058432;28;20449;-81
2021/12/21 12:45:05;;;;;;;9.87;8.87;;;;;;;;;;5058255;28;20716;-80
2021/12/21 12:47:32;;;;;;;8.25;7.53;;;;;;;;;;5059272;28;20478;-82
2021/12/21 12:49:59;;;;;;;17.13;13.67;;;;;;;;;;5058506;28;20191;-80
2021/12/21 12:52:30;;;;;;;9.53;8.63;;;;;;;;;;5057985;28;20445;-82
2021/12/21 12:54:57;;;;;;;8.88;8.07;;;;;;;;;;5058893;28;20478;-82
2021/12/21 12:57:29;;;;;;;9.67;8.40;;;;;;;;;;5058399;28;20206;-80
2021/12/21 12:59:57;;;;;;;9.20;7.27;;;;;;;;;;5058737;28;20445;-80
2021/12/21 13:02:25;;;;;;;10.50;7.90;;;;;;;;;;5066684;28;20451;-80
2021/12/21 13:04:52;;;;;;;8.10;7.30;;;;;;;;;;5078450;28;20507;-80
2021/12/21 13:07:27;;;;;;;8.07;7.47;;;;;;;;;;5079263;28;20456;-80
2021/12/21 13:10:02;;;;;;;8.50;6.60;;;;;;;;;;5081067;28;20445;-80
2021/12/21 13:12:29;;;;;;;9.10;7.50;;;;;;;;;;5080412;28;20477;-81
2021/12/21 13:14:56;;;;;;;7.15;6.55;;;;;;;;;;5078640;28;20460;-81
2021/12/21 13:17:23;;;;;;;6.90;6.20;;;;;;;;;;5078806;28;20209;-82
2021/12/21 13:19:50;;;;;;;7.93;6.60;;;;;;;;;;5079112;28;20449;-82
2021/12/21 13:22:22;;;;;;;9.70;6.63;;;;;;;;;;5078107;28;20456;-81
2021/12/21 13:24:51;;;;;;;6.80;6.10;;;;;;;;;;5077721;28;20530;-82
2021/12/21 13:27:20;;;;;;;7.37;6.60;;;;;;;;;;5078250;28;20487;-81
2021/12/21 13:29:47;;;;;;;7.50;6.00;;;;;;;;;;5077901;28;20947;-80
2021/12/21 13:32:15;;;;;;;8.20;7.50;;;;;;;;;;5077785;28;20446;-81
2021/12/21 13:34:44;;;;;;;6.93;6.33;;;;;;;;;;5077894;28;20453;-82
2021/12/21 13:37:13;;;;;;;7.07;6.47;;;;;;;;;;5077138;28;20436;-80
2021/12/21 13:39:41;;;;;;;7.10;6.50;;;;;;;;;;5077685;28;20448;-81
2021/12/21 13:42:11;;;;;;;7.83;7.03;;;;;;;;;;5077724;28;20454;-81
2021/12/21 13:44:39;;;;;;;7.07;6.47;;;;;;;;;;5076792;28;20512;-82
2021/12/21 13:47:16;;;;;;;10.27;7.05;;;;;;;;;;5082823;28;20429;-80
2021/12/21 13:49:51;;;;;;;8.00;6.57;;;;;;;;;;5096386;28;20194;-81
2021/12/21 13:52:19;;;;;;;8.63;6.43;;;;;;;;;;5095970;28;20195;-79
2021/12/21 13:54:46;;;;;;;9.33;6.53;;;;;;;;;;5096106;28;20469;-80
2021/12/21 13:57:17;;;;;;;7.77;6.80;;;;;;;;;;5095748;28;20445;-79
2021/12/21 13:59:46;;;;;;;7.00;6.30;;;;;;;;;;5095627;28;20437;-81
2021/12/21 14:02:23;;;;;;;8.93;7.10;;;;;;;;;;5092426;28;20452;-82
2021/12/21 14:04:59;;;;;;;7.00;6.30;;;;;;;;;;5087561;28;20476;-80
2021/12/21 14:07:27;;;;;;;6.70;6.10;;;;;;;;;;5088091;28;20450;-80
2021/12/21 14:10:01;;;;;;;6.87;6.33;;;;;;;;;;5088503;28;20454;-81
2021/12/21 14:12:30;;;;;;;6.80;6.20;;;;;;;;;;5090821;28;20997;-82
2021/12/21 14:14:57;;;;;;;6.63;5.88;;;;;;;;;;5092628;28;20447;-80
2021/12/21 14:17:26;;;;;;;7.03;6.33;;;;;;;;;;5094043;28;20300;-81
2021/12/21 14:19:55;;;;;;;6.80;6.10;;;;;;;;;;5092161;28;20437;-81
2021/12/21 14:22:22;;;;;;;8.03;6.07;;;;;;;;;;5092200;28;20418;-81
2021/12/21 14:24:50;;;;;;;7.10;5.80;;;;;;;;;;5083259;28;20487;-81
2021/12/21 14:27:18;;;;;;;8.13;7.13;;;;;;;;;;5081499;28;20551;-81
2021/12/21 14:29:47;;;;;;;9.20;6.47;;;;;;;;;;5080874;28;20452;-81
2021/12/21 14:32:26;;;;;;;6.53;5.93;;;;;;;;;;5080963;28;20532;-80
2021/12/21 14:34:55;;;;;;;6.73;6.07;;;;;;;;;;5081122;28;20484;-82
2021/12/21 14:37:24;;;;;;;7.37;6.67;;;;;;;;;;5080818;28;20472;-81
2021/12/21 14:39:55;;;;;;;6.35;5.82;;;;;;;;;;5079219;28;20467;-81
2021/12/21 14:42:23;;;;;;;6.90;6.30;;;;;;;;;;5077682;28;20209;-80
2021/12/21 14:44:53;;;;;;;11.90;7.13;;;;;;;;;;5076968;28;20477;-80
2021/12/21 14:47:22;;;;;;;8.47;6.07;;;;;;;;;;5077133;28;20458;-79
2021/12/21 14:49:53;;;;;;;6.87;5.83;;;;;;;;;;5078582;28;20929;-79
2021/12/21 14:52:25;;;;;;;6.30;5.80;;;;;;;;;;5078018;28;20450;-82
2021/12/21 14:54:53;;;;;;;7.07;5.80;;;;;;;;;;5077604;28;20468;-81
2021/12/21 14:57:29;;;;;;;7.40;6.73;;;;;;;;;;5077122;28;20798;-80
2021/12/21 14:59:57;;;;;;;6.90;6.23;;;;;;;;;;5078102;28;20425;-80
2021/12/21 15:02:49;;;;;;;7.60;6.40;;;;;;;;;;5069247;28;20440;-79
2021/12/21 15:05:14;;;;;;;7.10;6.00;;;;;;;;;;5056979;28;20540;-81
2021/12/21 15:07:41;;;;;;;10.10;6.40;;;;;;;;;;5056876;28;20500;-80
2021/12/21 15:10:09;;;;;;;6.90;6.17;;;;;;;;;;5056467;28;20477;-80
2021/12/21 15:12:36;;;;;;;7.93;6.67;;;;;;;;;;5057410;28;20450;-80
2021/12/21 15:15:05;;;;;;;7.40;6.68;;;;;;;;;;5061838;28;20454;-80
2021/12/21 15:17:32;;;;;;;7.90;6.53;;;;;;;;;;5061860;28;20203;-80
2021/12/21 15:19:59;;;;;;;7.90;7.07;;;;;;;;;;5062186;28;20457;-78
2021/12/21 15:22:26;;;;;;;9.07;6.73;;;;;;;;;;5061280;28;20534;-80
2021/12/21 15:24:53;;;;;;;9.13;7.47;;;;;;;;;;5060933;28;20481;-80
2021/12/21 15:27:20;;;;;;;9.88;7.53;;;;;;;;;;5061360;28;20437;-82
2021/12/21 15:29:47;;;;;;;8.13;7.23;;;;;;;;;;5061537;28;20222;-81
2021/12/21 15:32:17;;;;;;;8.93;8.03;;;;;;;;;;5061025;28;20439;-79
2021/12/21 15:34:45;;;;;;;10.23;6.73;;;;;;;;;;5061751;28;20451;-79